Time;durP1;ratioP1;P1;durP2;ratioP2;P2;SDS_P1;SDS_P2;PMS_P1;PMS_P2;Temp;Humidity;BMP_temperature;BMP_pressure;BME280_temperature;BME280_humidity;BME280_pressure;Samples;Min_cycle;Max_cycle;Signal;HPM_P1;HPM_P2
2022/10/29 00:02:24;;;;;;;6.13;2.38;;;;;;;;;;10449966;28;20097;-78
2022/10/29 00:07:27;;;;;;;9.88;2.20;;;;;;;;;;10450368;28;20039;-78
2022/10/29 00:12:29;;;;;;;7.30;2.35;;;;;;;;;;10458498;28;20049;-78
2022/10/29 00:17:33;;;;;;;9.20;2.20;;;;;;;;;;10474539;28;20046;-77
2022/10/29 00:22:36;;;;;;;5.45;2.17;;;;;;;;;;10490623;28;20162;-79
2022/10/29 00:27:38;;;;;;;6.60;2.13;;;;;;;;;;10455855;28;20190;-79
2022/10/29 00:32:42;;;;;;;8.50;2.08;;;;;;;;;;10457484;28;20077;-79
2022/10/29 00:37:45;;;;;;;6.70;1.92;;;;;;;;;;10407979;28;20529;-79
2022/10/29 00:42:47;;;;;;;12.68;2.70;;;;;;;;;;10415787;28;20092;-79
2022/10/29 00:47:52;;;;;;;7.32;2.58;;;;;;;;;;10431088;28;20132;-80
2022/10/29 00:52:56;;;;;;;7.25;2.28;;;;;;;;;;10436414;28;20049;-79
2022/10/29 00:57:59;;;;;;;7.37;2.90;;;;;;;;;;10422807;28;20272;-79
2022/10/29 01:03:03;;;;;;;10.80;3.42;;;;;;;;;;10409681;28;20049;-77
2022/10/29 01:08:06;;;;;;;8.90;3.38;;;;;;;;;;10443288;28;20045;-78
2022/10/29 01:13:16;;;;;;;7.65;2.72;;;;;;;;;;10445429;28;20041;-77
2022/10/29 01:18:21;;;;;;;10.27;2.78;;;;;;;;;;10449807;28;20076;-78
2022/10/29 01:23:39;;;;;;;9.27;3.20;;;;;;;;;;10438414;28;20076;-78
2022/10/29 01:28:48;;;;;;;8.88;2.60;;;;;;;;;;10440579;28;20076;-79
2022/10/29 01:33:55;;;;;;;7.28;2.10;;;;;;;;;;10436447;28;20049;-78
2022/10/29 01:39:02;;;;;;;8.10;2.05;;;;;;;;;;10419685;28;20065;-77
2022/10/29 01:44:08;;;;;;;8.00;2.45;;;;;;;;;;10412875;28;20096;-77
2022/10/29 01:49:15;;;;;;;11.32;2.00;;;;;;;;;;10442096;28;20037;-78
2022/10/29 01:54:18;;;;;;;8.35;2.30;;;;;;;;;;10438809;28;20049;-77
2022/10/29 01:59:21;;;;;;;9.27;2.40;;;;;;;;;;10399704;28;20039;-77
2022/10/29 02:04:53;;;;;;;6.60;1.73;;;;;;;;;;10368631;28;20092;-77
2022/10/29 02:10:00;;;;;;;9.02;1.77;;;;;;;;;;10438216;28;20129;-79
2022/10/29 02:15:04;;;;;;;6.80;2.70;;;;;;;;;;10441981;28;20100;-79
2022/10/29 02:20:10;;;;;;;5.97;1.90;;;;;;;;;;10408121;28;20046;-79
2022/10/29 02:25:18;;;;;;;4.75;2.47;;;;;;;;;;10413279;28;20402;-78
2022/10/29 02:30:20;;;;;;;6.40;2.17;;;;;;;;;;10423772;28;20586;-78
2022/10/29 02:35:24;;;;;;;6.47;1.90;;;;;;;;;;10421760;28;20059;-78
2022/10/29 02:40:27;;;;;;;6.88;2.10;;;;;;;;;;10418985;28;20091;-78
2022/10/29 02:45:30;;;;;;;7.80;2.25;;;;;;;;;;10449092;28;20045;-78
2022/10/29 02:50:34;;;;;;;9.23;2.42;;;;;;;;;;10435411;28;20048;-78
2022/10/29 02:55:36;;;;;;;;;;;;;;;;;;10447194;28;20049;-78
2022/10/29 03:00:40;;;;;;;5.95;2.00;;;;;;;;;;10413721;28;19967;-78
2022/10/29 03:05:44;;;;;;;6.53;1.65;;;;;;;;;;10391014;28;20038;-79
2022/10/29 03:10:54;;;;;;;11.20;2.10;;;;;;;;;;10414238;28;20521;-79
2022/10/29 03:15:58;;;;;;;6.55;2.20;;;;;;;;;;10448730;28;20041;-79
2022/10/29 03:21:02;;;;;;;8.02;1.92;;;;;;;;;;10437222;28;20049;-79
2022/10/29 03:26:04;;;;;;;;;;;;;;;;;;10438816;28;20029;-79
2022/10/29 03:31:07;;;;;;;3.47;1.20;;;;;;;;;;10428692;28;19974;-78
2022/10/29 03:36:11;;;;;;;6.10;1.98;;;;;;;;;;10414569;28;20042;-78
2022/10/29 03:41:13;;;;;;;7.88;1.58;;;;;;;;;;10448268;28;20116;-79
2022/10/29 03:46:16;;;;;;;8.25;2.10;;;;;;;;;;10432654;28;20038;-79
2022/10/29 03:51:20;;;;;;;7.10;1.90;;;;;;;;;;10374186;28;20046;-78
2022/10/29 03:56:22;;;;;;;;;;;;;;;;;;10408260;28;20042;-78
2022/10/29 04:01:25;;;;;;;5.13;1.80;;;;;;;;;;10416110;28;19936;-79
2022/10/29 04:06:34;;;;;;;5.80;1.92;;;;;;;;;;10426313;28;20456;-79
2022/10/29 04:11:36;;;;;;;;;;;;;;;;;;10453442;28;20044;-78
2022/10/29 04:16:39;;;;;;;5.75;2.13;;;;;;;;;;10438650;28;19929;-78
2022/10/29 04:21:43;;;;;;;5.30;1.77;;;;;;;;;;10452636;28;20048;-78
2022/10/29 04:27:05;;;;;;;4.93;1.13;;;;;;;;;;10401404;28;20053;-78
2022/10/29 04:32:28;;;;;;;6.72;1.30;;;;;;;;;;10418904;28;20106;-78
2022/10/29 04:37:32;;;;;;;3.65;1.90;;;;;;;;;;10449695;28;20041;-78
2022/10/29 04:42:35;;;;;;;6.32;2.00;;;;;;;;;;10449503;28;20045;-78
2022/10/29 04:47:38;;;;;;;3.93;1.33;;;;;;;;;;10440083;28;20053;-79
2022/10/29 04:52:45;;;;;;;8.02;1.88;;;;;;;;;;10459537;28;20049;-78
2022/10/29 04:57:48;;;;;;;;;;;;;;;;;;10429988;28;20064;-78
2022/10/29 05:02:57;;;;;;;6.40;2.03;;;;;;;;;;10417572;28;19921;-78
2022/10/29 05:08:02;;;;;;;2.85;1.17;;;;;;;;;;10411889;28;20072;-79
2022/10/29 05:13:07;;;;;;;7.32;1.60;;;;;;;;;;10405483;28;20077;-80
2022/10/29 05:18:09;;;;;;;9.82;2.53;;;;;;;;;;10421939;28;20120;-79
2022/10/29 05:23:13;;;;;;;6.60;1.88;;;;;;;;;;10455453;28;20406;-78
2022/10/29 05:28:18;;;;;;;4.88;1.80;;;;;;;;;;10445398;28;20065;-79
2022/10/29 05:33:22;;;;;;;10.85;1.77;;;;;;;;;;10450754;28;20057;-78
2022/10/29 05:38:26;;;;;;;8.93;1.60;;;;;;;;;;10460005;28;20111;-79
2022/10/29 05:43:29;;;;;;;4.82;1.60;;;;;;;;;;10503950;28;20068;-79
2022/10/29 05:48:31;;;;;;;10.07;2.23;;;;;;;;;;10491445;28;20029;-79
2022/10/29 05:53:35;;;;;;;4.80;1.40;;;;;;;;;;10480486;28;20044;-77
2022/10/29 05:58:38;;;;;;;5.63;1.85;;;;;;;;;;10433567;28;20044;-78
2022/10/29 06:03:41;;;;;;;5.35;1.13;;;;;;;;;;10412283;28;20038;-78
2022/10/29 06:08:45;;;;;;;2.73;1.27;;;;;;;;;;10437841;28;20498;-78
2022/10/29 06:13:48;;;;;;;8.15;1.60;;;;;;;;;;10436924;28;20434;-79
2022/10/29 06:18:51;;;;;;;8.10;2.63;;;;;;;;;;10447259;28;20067;-79
2022/10/29 06:23:55;;;;;;;6.30;1.70;;;;;;;;;;10436644;28;20403;-78
2022/10/29 06:28:58;;;;;;;5.32;1.70;;;;;;;;;;10438035;28;20447;-77
2022/10/29 06:34:01;;;;;;;6.38;2.03;;;;;;;;;;10431049;28;20347;-78
2022/10/29 06:39:05;;;;;;;4.23;1.83;;;;;;;;;;10422276;28;20036;-78
2022/10/29 06:44:08;;;;;;;8.25;1.80;;;;;;;;;;10449432;28;20048;-78
2022/10/29 06:49:10;;;;;;;11.45;1.98;;;;;;;;;;10434108;28;20104;-79
2022/10/29 06:54:14;;;;;;;5.20;1.65;;;;;;;;;;10407500;28;20045;-79
2022/10/29 06:59:17;;;;;;;9.75;2.10;;;;;;;;;;10432026;28;20040;-79
2022/10/29 07:04:20;;;;;;;10.93;2.85;;;;;;;;;;10446096;28;20044;-79
2022/10/29 07:09:24;;;;;;;11.48;2.17;;;;;;;;;;10438334;28;20079;-79
2022/10/29 07:14:27;;;;;;;6.95;2.28;;;;;;;;;;10448513;28;20509;-79
2022/10/29 07:19:29;;;;;;;8.10;2.00;;;;;;;;;;10451213;28;20098;-80
2022/10/29 07:24:33;;;;;;;7.55;2.17;;;;;;;;;;10446256;28;20280;-79
2022/10/29 07:29:36;;;;;;;11.45;2.97;;;;;;;;;;10432777;28;20121;-80
2022/10/29 07:34:38;;;;;;;;;;;;;;;;;;10435989;28;20049;-80
2022/10/29 07:39:44;;;;;;;14.03;2.33;;;;;;;;;;10443095;28;19921;-80
2022/10/29 07:44:48;;;;;;;9.70;2.05;;;;;;;;;;10461523;28;20037;-80
2022/10/29 07:49:51;;;;;;;9.00;2.20;;;;;;;;;;10452944;28;20045;-79
2022/10/29 07:54:55;;;;;;;5.05;1.90;;;;;;;;;;10458527;28;20292;-79
2022/10/29 07:59:57;;;;;;;13.15;2.53;;;;;;;;;;10438958;28;20124;-78
2022/10/29 08:05:00;;;;;;;7.82;2.03;;;;;;;;;;10427556;28;20069;-79
2022/10/29 08:10:04;;;;;;;5.57;1.73;;;;;;;;;;10431023;28;20044;-79
2022/10/29 08:15:08;;;;;;;7.63;1.50;;;;;;;;;;10422015;28;20353;-79
2022/10/29 08:20:10;;;;;;;;;;;;;;;;;;10449992;28;20043;-80
2022/10/29 08:25:14;;;;;;;8.55;2.28;;;;;;;;;;10444708;28;19925;-78
2022/10/29 08:30:16;;;;;;;5.97;1.92;;;;;;;;;;10431597;28;20099;-80
2022/10/29 08:35:21;;;;;;;11.75;1.88;;;;;;;;;;10415637;28;20142;-79
2022/10/29 08:40:29;;;;;;;7.50;2.10;;;;;;;;;;10438220;28;20343;-80
2022/10/29 08:45:34;;;;;;;8.98;1.85;;;;;;;;;;10449788;28;20045;-79
2022/10/29 08:50:43;;;;;;;9.85;1.90;;;;;;;;;;10449618;28;20060;-79
2022/10/29 08:55:47;;;;;;;5.28;1.83;;;;;;;;;;10444186;28;20052;-79
2022/10/29 09:00:52;;;;;;;8.82;1.60;;;;;;;;;;10428896;28;20029;-79
2022/10/29 09:06:00;;;;;;;9.98;1.98;;;;;;;;;;10417740;28;20040;-78
2022/10/29 09:11:07;;;;;;;8.75;1.50;;;;;;;;;;10406022;28;20037;-79
2022/10/29 09:16:21;;;;;;;7.22;1.70;;;;;;;;;;10421635;28;20104;-79
2022/10/29 09:21:28;;;;;;;11.93;2.03;;;;;;;;;;10374380;28;20344;-79
2022/10/29 09:26:37;;;;;;;9.52;2.20;;;;;;;;;;10435560;28;20040;-80
2022/10/29 09:31:41;;;;;;;12.63;3.00;;;;;;;;;;10433289;28;20041;-79
2022/10/29 09:36:44;;;;;;;5.20;2.10;;;;;;;;;;10437765;28;20089;-80
2022/10/29 09:41:50;;;;;;;8.07;2.05;;;;;;;;;;10418069;28;20136;-80
2022/10/29 09:46:59;;;;;;;8.13;2.47;;;;;;;;;;10432870;28;20102;-79
2022/10/29 09:52:10;;;;;;;12.00;3.00;;;;;;;;;;10442359;28;20482;-80
2022/10/29 09:57:18;;;;;;;8.48;2.88;;;;;;;;;;10439489;28;20052;-80
2022/10/29 10:02:31;;;;;;;10.40;3.15;;;;;;;;;;10398521;28;20100;-80
2022/10/29 10:07:41;;;;;;;6.18;2.42;;;;;;;;;;10431325;28;20554;-80
2022/10/29 10:12:46;;;;;;;7.82;2.85;;;;;;;;;;10457064;28;20045;-79
2022/10/29 10:17:53;;;;;;;10.70;3.10;;;;;;;;;;10443245;28;20168;-80
2022/10/29 10:22:56;;;;;;;12.13;3.30;;;;;;;;;;10410180;28;20037;-79
2022/10/29 10:28:04;;;;;;;7.00;3.10;;;;;;;;;;10421928;28;20043;-80
2022/10/29 10:33:11;;;;;;;9.85;3.10;;;;;;;;;;10422762;28;20494;-80
2022/10/29 10:38:15;;;;;;;10.07;2.50;;;;;;;;;;10439296;28;20037;-80
2022/10/29 10:43:20;;;;;;;10.52;2.60;;;;;;;;;;10426095;28;20049;-80
2022/10/29 10:48:25;;;;;;;10.02;3.13;;;;;;;;;;10418240;28;20038;-80
2022/10/29 10:53:35;;;;;;;11.93;2.53;;;;;;;;;;10452084;28;20067;-80
2022/10/29 10:58:41;;;;;;;13.05;3.20;;;;;;;;;;10432253;28;20045;-80
2022/10/29 11:03:46;;;;;;;12.90;3.10;;;;;;;;;;10393325;28;20053;-80
2022/10/29 11:08:55;;;;;;;13.70;3.08;;;;;;;;;;10419212;28;20041;-80
2022/10/29 11:14:03;;;;;;;15.55;3.35;;;;;;;;;;10451244;28;20063;-80
2022/10/29 11:19:07;;;;;;;9.40;2.90;;;;;;;;;;10392705;28;20041;-80
2022/10/29 11:24:13;;;;;;;12.13;3.45;;;;;;;;;;10417691;28;20045;-80
2022/10/29 11:29:22;;;;;;;11.27;3.15;;;;;;;;;;10428725;28;20129;-80
2022/10/29 11:34:29;;;;;;;12.90;3.38;;;;;;;;;;10407860;28;20075;-79
2022/10/29 11:39:35;;;;;;;11.50;2.75;;;;;;;;;;10415974;28;20416;-79
2022/10/29 11:44:39;;;;;;;10.13;3.50;;;;;;;;;;10444393;28;20129;-80
2022/10/29 11:49:57;;;;;;;13.13;3.45;;;;;;;;;;10413134;28;20057;-79
2022/10/29 11:55:05;;;;;;;18.48;3.58;;;;;;;;;;10416047;28;20045;-79
2022/10/29 12:00:13;;;;;;;10.25;3.33;;;;;;;;;;10432118;28;20044;-80
2022/10/29 12:05:20;;;;;;;9.25;3.08;;;;;;;;;;10415531;28;20081;-79
2022/10/29 12:10:34;;;;;;;11.73;3.10;;;;;;;;;;10439313;28;20048;-79
2022/10/29 12:15:44;;;;;;;12.07;3.20;;;;;;;;;;10457875;28;20041;-80
2022/10/29 12:20:50;;;;;;;13.57;3.13;;;;;;;;;;10409492;28;20044;-80
2022/10/29 12:25:58;;;;;;;12.05;3.13;;;;;;;;;;10400337;28;20140;-78
2022/10/29 12:31:08;;;;;;;10.82;3.25;;;;;;;;;;10439965;28;20064;-79
2022/10/29 12:36:15;;;;;;;10.03;2.87;;;;;;;;;;10426675;28;20040;-78
2022/10/29 12:41:20;;;;;;;9.93;3.20;;;;;;;;;;10446693;28;20474;-78
2022/10/29 12:46:27;;;;;;;13.63;3.30;;;;;;;;;;10432534;28;20083;-78
2022/10/29 12:51:35;;;;;;;11.45;3.35;;;;;;;;;;10450359;28;20052;-78
2022/10/29 12:56:38;;;;;;;9.30;3.13;;;;;;;;;;10446239;28;20494;-78
2022/10/29 13:01:44;;;;;;;11.77;2.90;;;;;;;;;;10449709;28;20076;-79
2022/10/29 13:13:00;;;;;;;13.30;3.30;;;;;;;;;;10663475;27;20420;-78
2022/10/29 13:18:05;;;;;;;11.35;3.33;;;;;;;;;;10636727;28;20054;-79
2022/10/29 13:23:30;;;;;;;13.07;3.10;;;;;;;;;;10634457;28;20063;-78
2022/10/29 13:28:51;;;;;;;11.32;3.38;;;;;;;;;;10639245;27;20031;-79
2022/10/29 13:33:53;;;;;;;17.65;3.00;;;;;;;;;;10685191;27;20030;-79
2022/10/29 13:39:02;;;;;;;11.25;2.58;;;;;;;;;;10696729;27;20042;-78
2022/10/29 13:44:12;;;;;;;8.85;2.72;;;;;;;;;;10705570;27;20056;-78
2022/10/29 13:49:19;;;;;;;8.90;2.85;;;;;;;;;;10647003;27;20048;-78
2022/10/29 13:54:35;;;;;;;8.90;2.80;;;;;;;;;;10614810;27;20042;-79
2022/10/29 13:59:41;;;;;;;9.55;3.08;;;;;;;;;;10626292;27;20035;-78
2022/10/29 14:04:48;;;;;;;13.27;3.13;;;;;;;;;;10668574;27;20039;-77
2022/10/29 14:09:54;;;;;;;16.35;2.83;;;;;;;;;;10657469;27;20042;-79
2022/10/29 14:15:02;;;;;;;12.20;3.10;;;;;;;;;;10625360;28;20070;-80
2022/10/29 14:20:19;;;;;;;7.53;2.38;;;;;;;;;;10633945;27;20146;-78
2022/10/29 14:25:28;;;;;;;9.77;2.13;;;;;;;;;;10600831;27;20051;-79
2022/10/29 14:30:32;;;;;;;9.90;2.50;;;;;;;;;;10615574;27;20067;-78
2022/10/29 14:35:35;;;;;;;8.68;2.53;;;;;;;;;;10628084;27;20504;-79
2022/10/29 14:40:38;;;;;;;8.55;2.42;;;;;;;;;;10622811;27;20060;-77
2022/10/29 14:45:42;;;;;;;12.18;2.50;;;;;;;;;;10596737;27;20430;-77
2022/10/29 14:50:46;;;;;;;14.05;2.88;;;;;;;;;;10626933;27;20043;-78
2022/10/29 14:55:49;;;;;;;9.65;2.55;;;;;;;;;;10627905;27;20054;-78
2022/10/29 15:00:57;;;;;;;8.52;2.50;;;;;;;;;;10625857;27;20318;-78
2022/10/29 15:06:17;;;;;;;15.57;2.47;;;;;;;;;;10633611;27;20526;-78
2022/10/29 15:11:31;;;;;;;13.55;3.03;;;;;;;;;;10635870;27;20039;-78
2022/10/29 15:16:38;;;;;;;12.40;2.95;;;;;;;;;;10627958;27;20039;-80
2022/10/29 15:21:44;;;;;;;10.98;2.58;;;;;;;;;;10607697;28;20492;-79
2022/10/29 15:26:51;;;;;;;11.80;2.88;;;;;;;;;;10627282;27;20035;-78
2022/10/29 15:32:08;;;;;;;11.70;2.47;;;;;;;;;;10626745;27;20044;-80
2022/10/29 15:37:23;;;;;;;8.02;2.20;;;;;;;;;;10617654;27;20122;-79
2022/10/29 15:42:26;;;;;;;8.38;2.05;;;;;;;;;;10582454;28;20446;-79
2022/10/29 15:47:30;;;;;;;11.55;2.95;;;;;;;;;;10613179;27;20085;-77
2022/10/29 15:52:33;;;;;;;;;;;;;;;;;;10597730;27;20108;-78
2022/10/29 15:57:37;;;;;;;12.73;3.33;;;;;;;;;;10595523;27;19972;-78
2022/10/29 16:02:41;;;;;;;12.40;3.05;;;;;;;;;;10628749;27;20069;-78
2022/10/29 16:07:45;;;;;;;12.00;2.70;;;;;;;;;;10628585;27;20067;-78
2022/10/29 16:12:49;;;;;;;15.50;2.83;;;;;;;;;;10570828;28;20050;-77
2022/10/29 16:17:52;;;;;;;9.25;2.80;;;;;;;;;;10608640;27;20062;-79
2022/10/29 16:22:56;;;;;;;;;;;;;;;;;;10624339;27;20046;-78
2022/10/29 16:28:02;;;;;;;6.97;2.47;;;;;;;;;;10609779;27;19919;-78
2022/10/29 16:33:06;;;;;;;12.45;3.50;;;;;;;;;;10607531;27;20042;-78
2022/10/29 16:38:09;;;;;;;12.73;3.67;;;;;;;;;;10614266;27;20085;-79
2022/10/29 16:43:13;;;;;;;14.20;4.20;;;;;;;;;;10577107;27;20104;-79
2022/10/29 16:48:15;;;;;;;10.35;3.53;;;;;;;;;;10596407;27;20039;-77
2022/10/29 16:53:25;;;;;;;9.70;4.13;;;;;;;;;;10578019;27;20075;-78
2022/10/29 16:58:31;;;;;;;11.90;3.63;;;;;;;;;;10628013;27;20047;-80
2022/10/29 17:03:35;;;;;;;14.52;2.90;;;;;;;;;;10607359;27;20031;-78
2022/10/29 17:08:38;;;;;;;14.53;3.73;;;;;;;;;;10620195;27;20039;-79
2022/10/29 17:13:44;;;;;;;11.05;3.42;;;;;;;;;;10592219;28;20055;-79
2022/10/29 17:18:49;;;;;;;10.00;2.97;;;;;;;;;;10603191;28;20123;-79
2022/10/29 17:23:55;;;;;;;6.93;2.38;;;;;;;;;;10584650;28;20402;-79
2022/10/29 17:29:00;;;;;;;12.85;3.88;;;;;;;;;;10614820;28;20124;-79
2022/10/29 17:34:03;;;;;;;13.00;3.58;;;;;;;;;;10606673;28;20035;-80
2022/10/29 17:39:09;;;;;;;8.32;2.58;;;;;;;;;;10610849;28;20101;-80
2022/10/29 17:44:17;;;;;;;14.45;4.00;;;;;;;;;;10626091;28;20288;-78
2022/10/29 17:49:20;;;;;;;12.13;3.55;;;;;;;;;;10622606;28;20047;-78
2022/10/29 17:54:23;;;;;;;13.68;3.47;;;;;;;;;;10631134;27;20035;-78
2022/10/29 17:59:27;;;;;;;10.57;3.53;;;;;;;;;;10653091;27;20043;-78
2022/10/29 18:04:30;;;;;;;10.77;3.10;;;;;;;;;;10637616;27;20062;-78
2022/10/29 18:09:35;;;;;;;11.37;3.23;;;;;;;;;;10621920;27;20032;-79
2022/10/29 18:14:39;;;;;;;13.02;2.97;;;;;;;;;;10596440;27;20047;-79
2022/10/29 18:19:44;;;;;;;12.73;3.63;;;;;;;;;;10606822;27;20036;-79
2022/10/29 18:24:47;;;;;;;13.45;3.05;;;;;;;;;;10612789;27;20039;-78
2022/10/29 18:29:51;;;;;;;10.17;4.03;;;;;;;;;;10595869;27;20127;-78
2022/10/29 18:34:54;;;;;;;12.10;3.40;;;;;;;;;;10620172;27;20055;-79
2022/10/29 18:39:57;;;;;;;5.93;2.03;;;;;;;;;;10600887;27;20039;-78
2022/10/29 18:45:02;;;;;;;7.95;3.80;;;;;;;;;;10569626;28;20127;-78
2022/10/29 18:50:05;;;;;;;20.20;3.70;;;;;;;;;;10606838;27;20089;-79
2022/10/29 18:55:09;;;;;;;11.38;3.72;;;;;;;;;;10602446;28;20050;-79
2022/10/29 19:00:19;;;;;;;15.10;3.45;;;;;;;;;;10625956;27;20040;-78
2022/10/29 19:05:21;;;;;;;10.32;3.33;;;;;;;;;;10577894;28;20074;-77
2022/10/29 19:10:27;;;;;;;11.00;4.22;;;;;;;;;;10628668;27;20040;-80
2022/10/29 19:15:36;;;;;;;13.33;3.83;;;;;;;;;;10614526;27;20041;-79
2022/10/29 19:20:39;;;;;;;12.10;3.55;;;;;;;;;;10638699;27;20047;-79
2022/10/29 19:25:41;;;;;;;13.67;4.30;;;;;;;;;;10622226;27;20568;-79
2022/10/29 19:30:45;;;;;;;13.93;4.63;;;;;;;;;;10610044;27;20046;-78
2022/10/29 19:35:49;;;;;;;14.60;4.95;;;;;;;;;;10614197;27;20043;-79
2022/10/29 19:40:52;;;;;;;14.47;5.53;;;;;;;;;;10618309;27;20516;-80
2022/10/29 19:45:56;;;;;;;19.08;5.68;;;;;;;;;;10616378;27;20057;-78
2022/10/29 19:50:59;;;;;;;14.65;4.72;;;;;;;;;;10581109;27;20051;-78
2022/10/29 19:56:02;;;;;;;11.83;5.10;;;;;;;;;;10584720;27;20047;-77
2022/10/29 20:01:07;;;;;;;15.07;6.03;;;;;;;;;;10613666;27;20043;-79
2022/10/29 20:06:10;;;;;;;16.67;6.25;;;;;;;;;;10616943;27;20039;-78
2022/10/29 20:11:20;;;;;;;14.90;5.63;;;;;;;;;;10593572;27;20061;-78
2022/10/29 20:16:24;;;;;;;11.60;4.97;;;;;;;;;;10593558;27;20538;-78
2022/10/29 20:21:27;;;;;;;16.85;5.05;;;;;;;;;;10585551;27;20048;-78
2022/10/29 20:26:30;;;;;;;13.47;5.23;;;;;;;;;;10611144;27;20491;-79
2022/10/29 20:31:34;;;;;;;15.48;4.97;;;;;;;;;;10600903;27;20072;-79
2022/10/29 20:36:45;;;;;;;13.18;5.10;;;;;;;;;;10614416;27;20035;-78
2022/10/29 20:41:48;;;;;;;14.00;4.57;;;;;;;;;;10580996;27;20044;-78
2022/10/29 20:46:52;;;;;;;12.53;4.50;;;;;;;;;;10596295;27;20047;-79
2022/10/29 20:51:55;;;;;;;14.10;4.90;;;;;;;;;;10580814;27;20035;-79
2022/10/29 20:56:57;;;;;;;19.17;5.43;;;;;;;;;;10586851;27;20126;-78
2022/10/29 21:02:01;;;;;;;15.65;5.28;;;;;;;;;;10612604;27;20507;-77
2022/10/29 21:07:04;;;;;;;20.58;5.70;;;;;;;;;;10610925;27;20043;-78
2022/10/29 21:12:07;;;;;;;17.88;5.40;;;;;;;;;;10574894;28;20039;-78
2022/10/29 21:17:11;;;;;;;15.67;4.60;;;;;;;;;;10594054;28;20404;-78
2022/10/29 21:22:18;;;;;;;14.75;5.35;;;;;;;;;;10576327;28;20072;-78
2022/10/29 21:27:21;;;;;;;14.45;4.65;;;;;;;;;;10601827;28;20059;-78
2022/10/29 21:32:25;;;;;;;14.88;4.40;;;;;;;;;;10601607;27;20039;-78
2022/10/29 21:37:28;;;;;;;16.98;4.65;;;;;;;;;;10604816;27;20086;-79
2022/10/29 21:42:30;;;;;;;11.98;4.43;;;;;;;;;;10584089;28;20039;-80
2022/10/29 21:47:34;;;;;;;15.60;5.15;;;;;;;;;;10599685;27;20088;-78
2022/10/29 21:52:37;;;;;;;21.35;4.93;;;;;;;;;;10582635;28;20036;-78
2022/10/29 21:57:42;;;;;;;10.38;3.90;;;;;;;;;;10603674;27;20043;-78
2022/10/29 22:02:46;;;;;;;11.50;4.05;;;;;;;;;;10623934;27;20035;-78
2022/10/29 22:07:49;;;;;;;14.45;4.40;;;;;;;;;;10624409;27;20119;-78
2022/10/29 22:12:51;;;;;;;12.80;4.72;;;;;;;;;;10633047;27;20088;-79
2022/10/29 22:17:56;;;;;;;13.27;4.63;;;;;;;;;;10616432;27;20123;-79
2022/10/29 22:22:58;;;;;;;16.17;5.72;;;;;;;;;;10589532;28;20401;-78
2022/10/29 22:28:02;;;;;;;12.82;5.18;;;;;;;;;;10620206;27;20044;-78
2022/10/29 22:33:07;;;;;;;14.80;4.88;;;;;;;;;;10604612;27;20069;-78
2022/10/29 22:38:12;;;;;;;17.27;4.70;;;;;;;;;;10628915;27;20684;-78
2022/10/29 22:43:15;;;;;;;17.10;5.20;;;;;;;;;;10571168;28;20096;-79
2022/10/29 22:48:19;;;;;;;13.55;4.45;;;;;;;;;;10605364;27;20507;-78
2022/10/29 22:53:22;;;;;;;12.10;4.15;;;;;;;;;;10591019;27;20039;-78
2022/10/29 22:58:25;;;;;;;10.23;4.28;;;;;;;;;;10603436;27;20050;-78
2022/10/29 23:03:29;;;;;;;12.47;4.07;;;;;;;;;;10624702;27;20069;-78
2022/10/29 23:08:32;;;;;;;14.45;4.43;;;;;;;;;;10582971;28;20039;-78
2022/10/29 23:13:46;;;;;;;12.88;4.13;;;;;;;;;;10589142;28;20089;-79
2022/10/29 23:18:50;;;;;;;8.20;2.97;;;;;;;;;;10620049;27;20076;-79
2022/10/29 23:23:53;;;;;;;11.45;3.67;;;;;;;;;;10627143;27;20547;-78
2022/10/29 23:28:58;;;;;;;12.57;3.50;;;;;;;;;;10604568;27;20062;-79
2022/10/29 23:34:06;;;;;;;11.10;3.67;;;;;;;;;;10604725;27;20103;-78
2022/10/29 23:39:15;;;;;;;14.40;3.67;;;;;;;;;;10604968;27;20035;-78
2022/10/29 23:44:25;;;;;;;13.05;3.45;;;;;;;;;;10622411;27;20043;-78
2022/10/29 23:49:37;;;;;;;10.82;3.90;;;;;;;;;;10592699;27;20584;-78
